createdAt,value
2023-01-17T00:02:11.343Z,76.70
2023-01-17T00:05:13.246Z,77.10
2023-01-17T00:08:15.139Z,76.50
2023-01-17T00:11:17.090Z,76.80
2023-01-17T00:14:18.935Z,76.40
2023-01-17T00:17:24.979Z,76.30
2023-01-17T00:20:29.585Z,76.90
2023-01-17T00:23:32.576Z,76.20
2023-01-17T00:26:36.945Z,76.50
2023-01-17T00:29:38.771Z,76.60
2023-01-17T00:32:40.602Z,76.40
2023-01-17T00:35:42.726Z,76.10
2023-01-17T00:38:44.667Z,75.90
2023-01-17T00:41:46.481Z,76.00
2023-01-17T00:44:48.410Z,75.60
2023-01-17T00:47:52.135Z,76.20
2023-01-17T00:50:55.080Z,75.90
2023-01-17T00:53:56.997Z,76.30
2023-01-17T00:57:00.169Z,76.10
2023-01-17T01:00:02.097Z,76.80
2023-01-17T01:03:09.859Z,76.90
2023-01-17T01:06:12.175Z,76.70
2023-01-17T01:09:14.022Z,77.40
2023-01-17T01:12:15.836Z,76.80
2023-01-17T01:15:20.245Z,77.60
2023-01-17T01:18:22.143Z,76.90
2023-01-17T01:21:24.198Z,76.80
2023-01-17T01:24:26.340Z,76.10
2023-01-17T01:27:28.204Z,75.50
2023-01-17T01:30:30.052Z,75.80
2023-01-17T01:33:32.029Z,75.30
2023-01-17T01:36:33.845Z,76.00
2023-01-17T01:39:35.738Z,75.30
2023-01-17T01:42:37.760Z,75.60
2023-01-17T01:45:40.788Z,76.00
2023-01-17T01:48:58.026Z,74.90
2023-01-17T01:52:03.197Z,75.70
2023-01-17T01:55:10.748Z,75.90
2023-01-17T01:58:20.549Z,75.50
2023-01-17T02:01:22.505Z,75.80
2023-01-17T02:04:27.291Z,76.20
2023-01-17T02:07:34.028Z,75.90
2023-01-17T02:10:39.855Z,75.70
2023-01-17T02:13:43.219Z,75.70
2023-01-17T02:17:06.318Z,76.30
2023-01-17T02:20:52.534Z,76.10
2023-01-17T02:24:17.618Z,76.00
2023-01-17T02:27:26.749Z,76.00
2023-01-17T02:30:39.464Z,76.70
2023-01-17T02:33:59.123Z,76.70
2023-01-17T02:37:26.150Z,76.20
2023-01-17T02:40:34.620Z,75.50
2023-01-17T02:43:39.024Z,75.90
2023-01-17T02:46:52.413Z,75.60
2023-01-17T02:49:58.473Z,75.60
2023-01-17T02:53:22.918Z,74.80
2023-01-17T02:56:33.124Z,75.70
2023-01-17T03:00:15.515Z,76.00
2023-01-17T03:03:35.577Z,75.60
2023-01-17T03:06:46.427Z,75.20
2023-01-17T03:09:52.149Z,75.10
2023-01-17T03:12:58.438Z,75.70
2023-01-17T03:16:01.003Z,75.40
2023-01-17T03:19:03.309Z,76.00
2023-01-17T03:22:05.152Z,76.50
2023-01-17T03:25:07.401Z,77.00
2023-01-17T03:28:09.262Z,76.20
2023-01-17T03:31:15.336Z,76.50
2023-01-17T03:34:17.320Z,76.70
2023-01-17T03:37:19.244Z,77.00
2023-01-17T03:40:21.636Z,77.00
2023-01-17T03:43:23.506Z,76.70
2023-01-17T03:46:28.173Z,76.40
2023-01-17T03:49:30.037Z,77.20
2023-01-17T03:52:31.982Z,76.50
2023-01-17T03:55:36.113Z,76.80
2023-01-17T03:58:37.986Z,76.20
2023-01-17T04:01:39.980Z,76.40
2023-01-17T04:04:41.886Z,75.80
2023-01-17T04:07:43.778Z,77.10
2023-01-17T04:10:45.637Z,76.10
2023-01-17T04:13:47.506Z,76.60
2023-01-17T04:16:49.415Z,76.00
2023-01-17T04:19:51.371Z,76.20
2023-01-17T04:22:53.315Z,75.80
2023-01-17T04:25:55.181Z,75.70
2023-01-17T04:28:57.113Z,76.20
2023-01-17T04:31:58.950Z,76.70
2023-01-17T04:35:00.862Z,77.10
2023-01-17T04:38:02.679Z,77.00
2023-01-17T04:41:04.713Z,77.20
2023-01-17T04:44:06.570Z,77.20
2023-01-17T04:47:08.460Z,77.20
2023-01-17T04:50:11.079Z,77.30
2023-01-17T04:53:13.071Z,77.70
2023-01-17T04:56:14.994Z,78.50
2023-01-17T04:59:16.929Z,78.60
2023-01-17T05:02:18.874Z,79.10
2023-01-17T05:05:20.715Z,79.50
2023-01-17T05:08:25.931Z,79.60
2023-01-17T05:11:27.752Z,79.20
2023-01-17T05:14:29.622Z,79.90
2023-01-17T05:17:31.474Z,79.40
2023-01-17T05:20:33.325Z,80.10
2023-01-17T05:23:35.219Z,78.90
2023-01-17T05:26:37.136Z,79.40
2023-01-17T05:29:39.558Z,78.40
2023-01-17T05:32:42.176Z,78.70
2023-01-17T05:35:44.046Z,79.00
2023-01-17T05:38:46.025Z,79.50
2023-01-17T05:41:48.225Z,79.90
2023-01-17T05:44:50.390Z,79.90
2023-01-17T05:47:54.217Z,80.70
2023-01-17T05:50:56.298Z,80.80
2023-01-17T05:53:58.254Z,80.70
2023-01-17T05:57:00.259Z,81.10
2023-01-17T06:00:02.456Z,81.70
2023-01-17T06:03:06.773Z,81.50
2023-01-17T06:06:08.888Z,81.20
2023-01-17T06:09:10.928Z,81.00
2023-01-17T06:12:12.873Z,81.50
2023-01-17T06:15:17.225Z,81.50
2023-01-17T06:18:19.308Z,81.00
2023-01-17T06:21:21.401Z,80.60
2023-01-17T06:24:23.417Z,81.60
2023-01-17T06:27:25.945Z,81.10
2023-01-17T06:30:27.952Z,81.20
2023-01-17T06:33:29.963Z,81.30
2023-01-17T06:36:33.413Z,81.40
2023-01-17T06:39:35.407Z,80.70
2023-01-17T06:42:37.379Z,80.80
2023-01-17T06:45:39.578Z,81.10
2023-01-17T06:48:42.257Z,80.70
2023-01-17T06:51:44.669Z,80.70
2023-01-17T06:54:46.842Z,80.70
2023-01-17T06:57:48.819Z,81.30
2023-01-17T07:00:50.951Z,81.70
2023-01-17T07:03:52.965Z,81.50
2023-01-17T07:06:54.916Z,81.40
2023-01-17T07:09:56.877Z,81.40
2023-01-17T07:12:59.576Z,81.30
2023-01-17T07:16:02.627Z,82.00
2023-01-17T07:19:04.527Z,81.80
2023-01-17T07:22:06.533Z,82.20
2023-01-17T07:25:09.085Z,81.70
2023-01-17T07:28:11.185Z,81.30
2023-01-17T07:31:13.137Z,81.50
2023-01-17T07:34:15.191Z,81.30
2023-01-17T07:37:17.258Z,80.90
2023-01-17T07:40:20.228Z,81.50
2023-01-17T07:43:22.234Z,81.40
2023-01-17T07:46:24.255Z,80.30
2023-01-17T07:49:26.272Z,80.60
2023-01-17T07:52:30.625Z,80.40
2023-01-17T07:55:32.887Z,80.70
2023-01-17T07:58:36.007Z,81.20
2023-01-17T08:01:38.076Z,81.90
2023-01-17T08:04:40.200Z,82.10
2023-01-17T08:07:42.225Z,81.90
2023-01-17T08:10:44.246Z,81.90
2023-01-17T08:13:46.149Z,81.70
2023-01-17T08:16:48.162Z,81.80
2023-01-17T08:19:50.138Z,80.90
2023-01-17T08:22:56.472Z,81.00
2023-01-17T08:26:01.616Z,81.20
2023-01-17T08:29:03.702Z,81.50
2023-01-17T08:32:07.217Z,81.60
2023-01-17T08:35:09.893Z,81.90
2023-01-17T08:38:12.771Z,82.10
2023-01-17T08:41:14.717Z,81.70
2023-01-17T08:44:16.673Z,81.20
2023-01-17T08:47:18.703Z,81.10
2023-01-17T08:50:20.787Z,81.00
2023-01-17T08:53:22.784Z,81.00
2023-01-17T08:56:25.295Z,81.10
2023-01-17T08:59:29.811Z,80.40
2023-01-17T09:02:31.797Z,79.90
2023-01-17T09:05:33.784Z,79.70
2023-01-17T09:08:35.911Z,79.30
2023-01-17T09:11:38.743Z,79.30
2023-01-17T09:14:40.781Z,78.80
2023-01-17T09:17:42.771Z,79.10
2023-01-17T09:20:44.649Z,78.90
2023-01-17T09:23:47.303Z,78.40
2023-01-17T09:26:53.715Z,78.40
2023-01-17T09:30:13.755Z,77.20
2023-01-17T09:33:19.306Z,75.00
2023-01-17T09:36:31.476Z,75.30
2023-01-17T09:39:40.578Z,73.90
2023-01-17T09:42:55.599Z,73.90
2023-01-17T09:46:20.407Z,72.40
2023-01-17T09:49:41.834Z,70.60
2023-01-17T09:53:16.802Z,68.60
2023-01-17T09:56:30.491Z,64.40
2023-01-17T10:00:02.676Z,59.60
2023-01-17T10:03:27.718Z,54.90
2023-01-17T10:06:53.886Z,58.10
2023-01-17T10:10:13.784Z,56.10
2023-01-17T10:13:25.624Z,56.20
2023-01-17T10:17:07.685Z,55.40
2023-01-17T10:20:42.161Z,53.00
2023-01-17T10:24:25.348Z,51.00
2023-01-17T10:27:34.942Z,49.20
2023-01-17T10:30:49.627Z,47.50
2023-01-17T10:34:12.051Z,47.10
2023-01-17T10:37:43.426Z,47.70
2023-01-17T10:40:51.058Z,44.20
2023-01-17T10:44:17.983Z,45.40
2023-01-17T10:47:22.383Z,44.90
2023-01-17T10:50:27.210Z,43.60
2023-01-17T10:54:02.504Z,42.00
2023-01-17T10:57:23.466Z,43.70
2023-01-17T11:00:58.270Z,47.50
2023-01-17T11:04:00.705Z,47.40
2023-01-17T11:07:16.485Z,46.30
2023-01-17T11:10:49.982Z,49.10
2023-01-17T11:13:54.528Z,50.60
2023-01-17T11:17:05.848Z,49.70
2023-01-17T11:20:12.082Z,50.90
2023-01-17T11:23:33.195Z,51.70
2023-01-17T11:26:36.981Z,51.00
2023-01-17T11:29:40.092Z,51.40
2023-01-17T11:32:56.987Z,52.40
2023-01-17T11:35:59.072Z,53.20
2023-01-17T11:39:19.331Z,54.40
2023-01-17T11:42:41.510Z,53.40
2023-01-17T11:45:44.645Z,53.70
2023-01-17T11:49:01.604Z,54.30
2023-01-17T12:04:06.408Z,55.10
2023-01-17T12:07:32.886Z,55.90
2023-01-17T12:10:53.130Z,54.30
2023-01-17T12:14:30.837Z,53.90
2023-01-17T12:18:00.307Z,54.70
2023-01-17T12:21:42.717Z,54.90
2023-01-17T12:25:06.302Z,53.30
2023-01-17T12:28:18.905Z,54.30
2023-01-17T12:31:31.149Z,55.00
2023-01-17T12:35:00.600Z,53.60
2023-01-17T12:38:09.127Z,54.20
2023-01-17T12:41:30.431Z,53.70
2023-01-17T12:44:58.423Z,54.30
2023-01-17T12:48:06.397Z,54.60
2023-01-17T12:51:32.543Z,53.40
2023-01-17T12:54:39.644Z,52.50
2023-01-17T12:57:46.250Z,52.80
2023-01-17T13:00:54.654Z,51.40
2023-01-17T13:04:16.686Z,51.60
2023-01-17T13:07:28.628Z,53.10
2023-01-17T13:10:45.617Z,53.40
2023-01-17T13:13:47.448Z,54.20
2023-01-17T13:16:53.107Z,56.30
2023-01-17T13:20:06.321Z,53.70
2023-01-17T13:23:29.226Z,55.00
2023-01-17T13:26:55.776Z,54.20
2023-01-17T13:30:04.029Z,52.50
2023-01-17T13:33:55.150Z,53.00
2023-01-17T13:37:04.552Z,54.00
2023-01-17T13:40:26.536Z,53.70
2023-01-17T13:47:03.245Z,50.40
2023-01-17T13:50:05.434Z,50.60
2023-01-17T13:53:29.205Z,51.50
2023-01-17T13:59:39.720Z,52.40
2023-01-17T14:02:43.323Z,52.40
2023-01-17T14:05:56.740Z,52.00
2023-01-17T14:09:26.513Z,50.80
2023-01-17T14:12:33.074Z,51.30
2023-01-17T14:15:49.376Z,50.80
2023-01-17T14:18:53.078Z,50.70
2023-01-17T14:22:23.995Z,51.50
2023-01-17T14:25:30.704Z,51.90
2023-01-17T14:28:32.821Z,51.30
2023-01-17T14:31:34.826Z,52.10
2023-01-17T14:34:45.937Z,51.10
2023-01-17T14:38:06.475Z,50.70
2023-01-17T14:41:37.516Z,51.20
2023-01-17T14:44:46.438Z,51.30
2023-01-17T14:48:04.228Z,51.80
2023-01-17T14:51:19.351Z,51.50
2023-01-17T14:54:29.304Z,51.40
2023-01-17T14:57:39.514Z,51.60
2023-01-17T15:00:44.089Z,50.60
2023-01-17T15:03:54.589Z,51.90
2023-01-17T15:07:00.254Z,51.50
2023-01-17T15:10:03.457Z,51.40
2023-01-17T15:13:10.078Z,51.20
2023-01-17T15:16:24.225Z,52.40
2023-01-17T15:19:26.191Z,53.10
2023-01-17T15:22:28.810Z,53.00
2023-01-17T15:25:31.579Z,52.90
2023-01-17T15:28:36.647Z,52.90
2023-01-17T15:31:48.449Z,53.80
2023-01-17T15:34:52.267Z,53.60
2023-01-17T15:37:55.449Z,54.20
2023-01-17T15:41:08.153Z,54.50
2023-01-17T15:44:31.136Z,52.90
2023-01-17T15:47:39.321Z,54.10
2023-01-17T15:50:41.315Z,53.80
2023-01-17T15:53:43.437Z,53.40
2023-01-17T15:56:45.445Z,54.30
2023-01-17T16:00:07.967Z,53.20
2023-01-17T16:03:19.677Z,53.40
2023-01-17T16:06:38.451Z,53.20
2023-01-17T16:09:44.657Z,53.40
2023-01-17T16:12:47.833Z,56.50
2023-01-17T16:15:50.095Z,54.20
2023-01-17T16:18:59.358Z,56.70
2023-01-17T16:22:01.673Z,61.00
2023-01-17T16:25:12.537Z,61.50
2023-01-17T16:31:22.090Z,63.60
2023-01-17T16:34:30.787Z,64.40
2023-01-17T16:37:32.956Z,65.80
2023-01-17T16:40:41.022Z,65.90
2023-01-17T16:44:04.033Z,66.90
2023-01-17T16:47:12.715Z,66.70
2023-01-17T16:50:17.006Z,67.70
2023-01-17T16:53:24.298Z,67.60
2023-01-17T16:56:26.987Z,66.70
2023-01-17T16:59:42.403Z,66.90
2023-01-17T17:02:57.877Z,66.00
2023-01-17T17:06:00.986Z,65.60
2023-01-17T17:09:02.978Z,66.10
2023-01-17T17:12:05.303Z,65.90
2023-01-17T17:15:08.300Z,64.70
2023-01-17T17:18:16.081Z,65.50
2023-01-17T17:21:25.329Z,64.60
2023-01-17T17:24:28.192Z,64.90
2023-01-17T17:27:30.275Z,65.00
2023-01-17T17:30:32.272Z,64.90
2023-01-17T17:33:34.752Z,64.60
2023-01-17T17:36:37.537Z,64.50
2023-01-17T17:39:39.495Z,64.20
2023-01-17T17:42:43.060Z,63.40
2023-01-17T17:45:44.928Z,63.80
2023-01-17T17:48:47.437Z,63.70
2023-01-17T17:51:49.657Z,63.20
2023-01-17T17:54:51.566Z,63.40
2023-01-17T17:57:53.786Z,64.10
2023-01-17T18:04:03.613Z,63.70
2023-01-17T18:07:05.662Z,63.30
2023-01-17T18:10:08.312Z,63.30
2023-01-17T18:13:10.403Z,63.80
2023-01-17T18:16:15.201Z,64.10
2023-01-17T18:19:20.193Z,64.00
2023-01-17T18:22:22.244Z,63.70
2023-01-17T18:25:24.484Z,63.40
2023-01-17T18:28:26.984Z,62.70
2023-01-17T18:31:31.128Z,63.20
2023-01-17T18:34:33.787Z,63.40
2023-01-17T18:37:36.144Z,64.90
2023-01-17T18:40:38.064Z,63.50
2023-01-17T18:43:40.354Z,64.10
2023-01-17T18:46:42.943Z,64.20
2023-01-17T18:49:44.872Z,65.70
2023-01-17T18:52:47.188Z,65.50
2023-01-17T18:55:57.298Z,63.30
2023-01-17T18:59:01.644Z,64.10
2023-01-17T19:02:03.868Z,63.30
2023-01-17T19:05:06.564Z,62.90
2023-01-17T19:08:08.739Z,63.50
2023-01-17T19:11:16.844Z,62.80
2023-01-17T19:14:19.227Z,62.70
2023-01-17T19:17:21.654Z,62.90
2023-01-17T19:20:23.913Z,62.70
2023-01-17T19:23:26.015Z,63.80
2023-01-17T19:26:28.664Z,61.20
2023-01-17T19:29:30.836Z,61.40
2023-01-17T19:32:32.984Z,62.20
2023-01-17T19:35:35.141Z,63.00
2023-01-17T19:38:37.805Z,64.80
2023-01-17T19:41:45.347Z,64.60
2023-01-17T19:44:47.599Z,65.60
2023-01-17T19:47:56.315Z,66.00
2023-01-17T19:51:05.390Z,67.00
2023-01-17T19:54:07.660Z,68.40
2023-01-17T19:57:09.816Z,68.90
2023-01-17T20:00:13.147Z,69.20
2023-01-17T20:03:15.536Z,71.40
2023-01-17T20:06:21.290Z,72.30
2023-01-17T20:09:23.499Z,73.00
2023-01-17T20:12:25.536Z,73.50
2023-01-17T20:15:27.566Z,74.30
2023-01-17T20:18:29.611Z,75.70
2023-01-17T20:21:32.394Z,75.20
2023-01-17T20:24:34.416Z,76.40
2023-01-17T20:27:36.628Z,76.60
2023-01-17T20:30:38.655Z,77.90
2023-01-17T20:33:45.158Z,78.40
2023-01-17T20:36:47.396Z,78.90
2023-01-17T20:39:49.361Z,79.10
2023-01-17T20:42:51.343Z,80.10
2023-01-17T20:45:56.567Z,79.70
2023-01-17T20:48:59.060Z,79.10
2023-01-17T20:52:07.078Z,79.60
2023-01-17T20:55:09.283Z,79.90
2023-01-17T20:58:13.495Z,80.40
2023-01-17T21:01:22.473Z,81.00
2023-01-17T21:04:24.531Z,81.20
2023-01-17T21:07:33.615Z,81.00
2023-01-17T21:10:35.999Z,81.90
2023-01-17T21:13:38.668Z,81.90
2023-01-17T21:16:41.238Z,80.70
2023-01-17T21:19:43.764Z,81.70
2023-01-17T21:22:45.686Z,81.60
2023-01-17T21:25:57.457Z,82.40
2023-01-17T21:29:12.830Z,82.70
2023-01-17T21:32:33.457Z,82.30
2023-01-17T21:35:53.955Z,83.10
2023-01-17T21:38:59.972Z,82.80
2023-01-17T21:42:10.593Z,83.00
2023-01-17T21:45:27.920Z,82.70
2023-01-17T21:48:51.248Z,83.50
2023-01-17T21:52:09.121Z,83.00
2023-01-17T21:55:14.553Z,82.80
2023-01-17T21:58:24.374Z,82.50
2023-01-17T22:01:44.304Z,83.50
2023-01-17T22:04:59.465Z,84.10
2023-01-17T22:08:07.370Z,84.80
2023-01-17T22:11:30.563Z,84.90
2023-01-17T22:14:35.145Z,83.90
2023-01-17T22:17:49.089Z,84.50
2023-01-17T22:20:53.358Z,85.50
2023-01-17T22:24:01.746Z,85.00
2023-01-17T22:27:12.364Z,85.40
2023-01-17T22:30:17.025Z,85.60
2023-01-17T22:33:24.330Z,85.50
2023-01-17T22:36:39.302Z,84.80
2023-01-17T22:39:49.046Z,85.20
2023-01-17T22:43:04.832Z,85.40
2023-01-17T22:46:10.755Z,85.50
2023-01-17T22:49:21.062Z,84.80
2023-01-17T22:52:30.093Z,85.30
2023-01-17T22:55:32.318Z,85.60
2023-01-17T22:58:40.576Z,85.30
2023-01-17T23:01:42.654Z,85.40
2023-01-17T23:05:01.349Z,85.00
2023-01-17T23:08:03.304Z,85.40
2023-01-17T23:11:28.113Z,85.60
2023-01-17T23:14:35.433Z,86.10
2023-01-17T23:17:37.297Z,85.50
2023-01-17T23:20:39.147Z,85.40
2023-01-17T23:23:41.016Z,85.80
2023-01-17T23:26:43.035Z,85.60
2023-01-17T23:29:44.978Z,85.20
2023-01-17T23:32:50.290Z,85.90
2023-01-17T23:35:53.379Z,86.20
2023-01-17T23:38:55.168Z,85.70
2023-01-17T23:41:57.445Z,86.00
2023-01-17T23:44:59.349Z,86.30
2023-01-17T23:48:01.279Z,86.10
2023-01-17T23:51:04.367Z,85.80
2023-01-17T23:54:06.159Z,86.10
2023-01-17T23:57:08.067Z,85.40
